x

Santa Monica Basin - 33nm Wsw Of Santa Monica, Ca (46025) Weather Station

9:20am - Fri 23rd Jun 2017 All times are PDT. -7 hours from GMT.

  • Wind
  • Sea Temp 66°f
  • Air Temp 61°f
  • Sea Pressure 1012.9mb
  • Santa Monica Basin - 33nm Wsw Of Santa Monica, Ca
  • Santa Monica Basin - 33nm Wsw Of Santa Monica, Ca

More Historic Weather Station data

Upgrade to MSW Pro to gain access to the past 30 days of data for over 8000 Wavebouys and Weather Stations around the globe.

Join Pro

Comparision Forecast

View Surf forecast
   
Fri 06/23 9:20am  -   -   -   -  2 mph 1012.9mb 66f 61f
9:10am  -   -   -   -  2 mph 1012.9mb 66f 61f
9:00am  -   -   -   -  2 mph 1012.8mb 66f 61f
8:50am 3.5ft 14s 8s 2 4 mph 1012.9mb 66f 61f
8:40am  -   -   -  2 4 mph 1013mb 66f 61f
8:30am  -   -   -   -  2 mph 1012.9mb 66f 61f
8:20am  -   -   -   -  4 mph 1012.6mb 67f 61f
8:10am  -   -   -  2 4 mph 1012.6mb 66f 60f
8:00am  -   -   -  2 4 mph 1012.6mb 66f 60f
7:50am 3.5ft 16s 8s 4 7 mph 1012.6mb 66f 60f
7:40am 3.5ft  -  8s 4 9 mph 1012.5mb 66f 60f
7:30am  -   -   -  4 7 mph 1012.4mb 67f 60f
7:20am  -   -   -  4 7 mph 1012.5mb 67f 60f
7:10am  -   -   -  4 9 mph 1012.4mb 67f 60f
7:00am  -   -   -  4 7 mph 1012.5mb 67f 60f
6:50am 3.5ft 15s 8s 4 7 mph 1012.4mb 67f 60f
6:40am 3.5ft  -  8s 4 7 mph 1012.4mb 67f 60f
6:30am  -   -   -  4 9 mph 1012.4mb 67f 60f
6:20am  -   -   -  2 7 mph 1012.1mb 67f 60f
6:10am  -   -   -  4 9 mph 1012mb 67f 60f
6:00am  -   -   -  2 7 mph 1012mb 67f 60f
5:50am 3.5ft 16s 8s 4 7 mph 1012mb 67f 60f
5:40am 3.5ft  -  8s 4 7 mph 1011.9mb 67f 60f
5:30am  -   -   -  4 11 mph 1011.8mb 67f 60f
5:20am  -   -   -  4 11 mph 1011.6mb 67f 60f
5:10am  -   -   -  7 9 mph 1011.6mb 67f 60f
5:00am  -   -   -  7 9 mph 1011.5mb - 60f
4:50am 3.5ft 14s 9s 4 7 mph 1011.5mb 67f 60f
4:40am 3.5ft  -  9s 2 7 mph 1011.5mb 67f 60f
4:30am  -   -   -   -  2 mph 1011.5mb 67f 60f
4:20am  -   -   -  2 4 mph 1011.4mb 67f 60f
4:10am  -   -   -  2 7 mph 1011.4mb 67f 60f
4:00am  -   -   -  2 7 mph 1011.4mb 67f 60f
3:50am 3.5ft 16s 9s 2 4 mph 1011.3mb 67f 60f
3:40am  -   -   -  2 4 mph 1011.3mb 67f 60f
3:30am  -   -   -  2 4 mph 1011.3mb 67f 60f
3:20am  -   -   -  2 4 mph 1011.4mb 67f 60f
3:10am  -   -   -  2 4 mph 1011.5mb 67f 60f
3:00am  -   -   -  4 7 mph 1011.5mb 67f 60f
2:50am 3.5ft 15s 9s  -  2 mph 1011.6mb 67f 60f
2:40am 3.5ft  -  9s 2 7 mph 1011.6mb 67f 60f
2:30am  -   -   -  2 4 mph 1011.8mb 67f 60f
2:20am  -   -   -  2 4 mph 1011.8mb 67f 60f
2:10am  -   -   -  4 7 mph 1011.9mb 67f 60f
2:00am  -   -   -  4 9 mph 1011.9mb 67f 60f
1:50am 3.5ft 15s 9s 2 7 mph 1011.9mb 67f 60f
1:40am 3.5ft  -  9s 4 9 mph 1011.8mb 67f 60f
1:30am  -   -   -  2 9 mph 1011.8mb 67f 60f
1:20am  -   -   -  2 7 mph 1011.8mb 67f 60f
1:10am  -   -   -  4 7 mph 1011.8mb 67f 60f
1:00am  -   -   -  4 7 mph 1011.6mb 67f 60f
12:50am 4ft 17s 9s 4 7 mph 1011.5mb 67f 60f
12:40am 4ft  -  9s 2 4 mph 1011.6mb 67f 60f
12:30am  -   -   -  2 4 mph 1011.5mb 67f 60f
12:20am  -   -   -  2 4 mph 1011.5mb 67f 60f
12:10am  -   -   -  2 7 mph 1011.6mb 67f 60f
12:00am  -   -   -  4 7 mph 1011.6mb 67f 60f
Thu 06/22 11:50pm 3.5ft 14s 8s 4 7 mph 1011.5mb 67f 60f
11:40pm  -   -   -  4 7 mph 1011.6mb 67f 60f
11:30pm  -   -   -  4 7 mph 1011.8mb 67f 60f
11:20pm  -   -   -  2 7 mph 1011.6mb 67f 60f
11:10pm  -   -   -  2 7 mph 1011.6mb 67f 60f
11:00pm  -   -   -  2 7 mph 1011.5mb 66f 60f
10:50pm 3.5ft 15s 8s 4 7 mph 1011.5mb 67f 60f
10:40pm 3.5ft  -  8s  -  4 mph 1011.5mb 67f 60f
10:30pm  -   -   -  2 4 mph 1011.5mb 67f 60f
10:20pm  -   -   -  2 4 mph 1011.5mb 67f 60f
10:10pm  -   -   -  4 7 mph 1011.4mb 67f 60f
10:00pm  -   -   -  4 7 mph 1011.1mb 67f 60f
9:50pm 4ft 15s 9s 2 7 mph 1011mb 67f 60f
9:40pm 4ft  -  9s 4 7 mph 1010.8mb 67f 61f
9:30pm  -   -   -  2 7 mph 1010.5mb 67f 60f
9:20pm  -   -   -  2 7 mph 1010.5mb 67f 60f
9:10pm  -   -   -  4 9 mph 1010.4mb 67f 61f
9:00pm  -   -   -  7 9 mph 1010.3mb 67f 61f
8:50pm 4.5ft 14s 9s 4 7 mph 1010.3mb 67f 61f
8:40pm  -   -   -  4 7 mph 1010.1mb 67f 61f
8:30pm  -   -   -  2 7 mph 1010.1mb 67f 61f
8:20pm  -   -   -  2 7 mph 1010mb 67f 61f
8:10pm  -   -   -  7 9 mph 1010mb 66f 61f
8:00pm  -   -   -  4 7 mph 1009.9mb 66f 61f
7:50pm 4ft 15s 8s 4 7 mph 1009.9mb 66f 61f
7:40pm 4ft  -  8s 4 7 mph 1009.9mb 66f 61f
7:30pm  -   -   -  4 7 mph 1009.9mb 66f 61f
7:20pm  -   -   -  7 9 mph 1009.6mb 66f 61f
7:10pm  -   -   -  4 7 mph 1009.8mb 67f 62f
7:00pm  -   -   -  7 9 mph 1009.6mb 67f 62f
6:50pm 4ft 14s 9s 4 7 mph 1009.5mb 67f 62f
6:40pm 4ft  -  9s 4 9 mph 1009.5mb 67f 62f
6:30pm  -   -   -  4 9 mph 1009.4mb 67f 62f
6:20pm  -   -   -  7 9 mph 1009.4mb 67f 62f
6:10pm  -   -   -  7 9 mph 1009.1mb 67f 62f
6:00pm  -   -   -  7 9 mph 1009.8mb 67f 62f
5:50pm 3.5ft 15s 8s 7 9 mph 1009.1mb 67f 62f
5:40pm 3.5ft  -  8s 7 9 mph 1009.3mb 67f 62f
5:30pm  -   -   -  4 7 mph 1009.4mb 67f 62f
5:20pm  -   -   -  4 9 mph 1009.4mb 67f 62f
5:10pm  -   -   -  7 9 mph 1009.5mb 67f 62f
5:00pm  -   -   -  7 9 mph 1009.4mb 67f 62f
4:50pm 3.5ft 15s 8s 7 9 mph 1009.5mb 67f 63f
4:40pm 3.5ft  -  8s 7 9 mph 1009.5mb 67f 63f
4:30pm  -   -   -  7 9 mph 1009.6mb 67f 63f
4:20pm  -   -   -  7 9 mph 1009.8mb 67f 63f
4:10pm  -   -   -  7 9 mph 1009.8mb 67f 63f
4:00pm  -   -   -  7 9 mph 1009.9mb 67f 63f
3:50pm 3.5ft 15s 8s 7 9 mph 1010mb 67f 63f
3:40pm  -   -   -  7 9 mph 1010mb 67f 63f
3:30pm  -   -   -  7 11 mph 1010.1mb 67f 63f
3:20pm  -   -   -  7 9 mph 1010.1mb 67f 63f
3:10pm  -   -   -  9 9 mph 1010.1mb 67f 64f
3:00pm  -   -   -  7 9 mph 1010.1mb 67f 64f
2:50pm 3.5ft 17s 8s 9 11 mph 1010.3mb 67f 64f
2:40pm 3.5ft  -  8s 9 11 mph 1010.1mb 67f 64f
2:30pm  -   -   -  7 11 mph 1010.4mb 67f 64f
2:20pm  -   -   -  7 9 mph 1010.4mb 67f 63f
2:10pm  -   -   -  7 9 mph 1010.5mb 67f 63f
2:00pm  -   -   -  7 9 mph 1010.5mb 67f 63f
1:50pm 3ft 17s 7s 9 11 mph 1010.5mb 67f 63f
1:40pm  -   -   -  9 11 mph 1010.5mb 66f 63f
1:30pm  -   -   -  9 11 mph 1010.5mb 67f 63f
1:20pm  -   -   -  9 13 mph 1010.5mb 67f 63f
1:10pm  -   -   -  9 11 mph 1010.5mb 66f 62f
1:00pm  -   -   -  9 11 mph 1010.6mb 67f 62f
12:50pm 3.5ft 14s 8s 11 13 mph 1010.6mb 67f 62f
12:40pm 3.5ft  -  8s 11 13 mph 1010.8mb 67f 62f
12:30pm  -   -   -  11 13 mph 1010.6mb 67f 62f
12:20pm  -   -   -  11 13 mph 1010.6mb 67f 62f
12:10pm  -   -   -  11 13 mph 1010.5mb 67f 62f
12:00pm  -   -   -  9 13 mph 1010.5mb - 63f
11:50am 4ft 15s 8s 9 13 mph 1010.5mb 67f 62f
11:40am 4ft  -  8s 9 13 mph 1010.5mb 67f 63f
11:30am  -   -   -  9 11 mph 1010.5mb 67f 63f
11:20am  -   -   -  9 11 mph 1010.4mb 67f 63f
11:10am  -   -   -  9 11 mph 1010.3mb 67f 63f
11:00am  -   -   -  9 11 mph 1010.1mb 67f 63f
10:50am 3.5ft 15s 8s 9 11 mph 1010.1mb 67f 63f
10:40am 3.5ft  -  8s 11 13 mph 1010mb 67f 63f
10:30am  -   -   -  11 13 mph 1009.9mb 67f 63f
10:20am  -   -   -  9 11 mph 1009.9mb 67f 63f
10:10am  -   -   -  9 11 mph 1009.8mb 67f 63f
10:00am  -   -   -  9 11 mph 1009.6mb 66f 63f
9:50am 3.5ft 15s 7s 9 13 mph 1009.5mb 66f 63f
9:40am 3.5ft  -  7s 9 13 mph 1009.5mb 66f 63f
9:30am  -   -   -  11 13 mph 1009.4mb 66f 63f
9:20am  -   -   -  9 11 mph 1009.3mb 66f 63f
9:10am  -   -   -  9 11 mph 1009.3mb 66f 63f
9:00am  -   -   -  7 11 mph 1009.1mb 66f 63f
8:50am 3.5ft 15s 7s 7 11 mph 1009.3mb 66f 63f
8:40am 3.5ft  -  7s 7 11 mph 1009.1mb 66f 63f
8:30am  -   -   -  4 7 mph 1009mb 66f 63f
8:20am  -   -   -  7 9 mph 1008.8mb 66f 63f
8:10am  -   -   -  7 9 mph 1008.5mb 66f 63f
8:00am  -   -   -  7 11 mph 1008.5mb 67f 63f
7:50am 3.5ft 14s 7s 7 7 mph 1008.5mb 67f 63f
7:40am 3.5ft  -  7s 4 11 mph 1008.4mb 67f 63f
7:30am  -   -   -  4 9 mph 1008.3mb 67f 62f
7:20am  -   -   -  9 11 mph 1008.1mb 67f 63f
7:10am  -   -   -  9 11 mph 1008mb 67f 63f
7:00am  -   -   -  7 9 mph 1008mb 67f 63f
6:50am 4ft 15s 7s 7 9 mph 1007.8mb 67f 63f
6:40am  -   -   -  7 9 mph 1007.6mb 67f 63f
6:30am  -   -   -  7 9 mph 1007.5mb 67f 62f
6:20am  -   -   -  4 9 mph 1007.5mb 67f 63f
6:10am  -   -   -  4 4 mph 1007.5mb 67f 63f
6:00am  -   -   -  2 4 mph 1007.4mb 67f 63f
5:50am 4ft 16s 7s 2 4 mph 1007.1mb 67f 63f
5:40am 4ft  -  7s 2 4 mph 1007.3mb 67f 63f
5:30am  -   -   -  2 4 mph 1007.3mb 67f 63f
5:20am  -   -   -  4 4 mph 1007.1mb 67f 63f
5:10am  -   -   -  4 4 mph 1007mb 67f 63f
5:00am  -   -   -  4 7 mph 1007mb 67f 63f
4:50am 4ft 15s 7s 4 7 mph 1006.9mb 66f 63f
4:40am 4ft  -  7s 4 7 mph 1006.9mb 66f 63f
4:30am  -   -   -  2 7 mph 1006.9mb 66f 63f
4:20am  -   -   -   -  2 mph 1006.8mb 66f 63f
4:10am  -   -   -  2 4 mph 1006.6mb 66f 63f
4:00am  -   -   -  2 4 mph 1006.6mb 66f 63f
3:50am 4ft 15s 6s 2 4 mph 1006.8mb 66f 63f
3:40am 4ft  -  6s 2 4 mph 1006.8mb 66f 62f
3:30am  -   -   -  2 4 mph 1006.8mb 66f 63f
3:20am  -   -   -  2 4 mph 1006.9mb 67f 62f
3:10am  -   -   -  4 7 mph 1006.8mb 67f 62f
3:00am  -   -   -  4 7 mph 1006.9mb 67f 62f
2:50am 4ft 14s 6s 4 4 mph 1006.6mb 67f 63f
2:40am 4ft  -  6s 4 7 mph 1006.5mb 67f 62f
2:30am  -   -   -  4 7 mph 1006.6mb 67f 62f
2:20am  -   -   -  4 7 mph 1006.5mb 67f 62f
2:10am  -   -   -  4 7 mph 1006.8mb 67f 63f
2:00am  -   -   -  4 4 mph 1006.6mb 67f 63f
1:50am 4.5ft 15s 6s 2 4 mph 1006.8mb 67f 63f
1:40am 4.5ft  -  6s 2 4 mph 1006.6mb 67f 63f
1:30am  -   -   -  2 4 mph 1006.6mb 67f 63f
1:20am  -   -   -  2 4 mph 1006.6mb 67f 63f
1:10am  -   -   -  2 4 mph 1006.6mb 67f 63f
1:00am  -   -   -  2 4 mph 1006.8mb 67f 63f
12:50am 4.5ft 14s 6s 4 7 mph 1006.9mb 67f 64f
12:40am 4.5ft  -  6s 4 7 mph 1006.8mb 67f 64f
12:30am  -   -   -  4 7 mph 1006.8mb 67f 64f
12:20am  -   -   -  2 4 mph 1006.8mb 67f 64f
12:10am  -   -   -  4 7 mph 1006.9mb 67f 64f
12:00am  -   -   -  2 7 mph 1006.9mb 67f 64f
Wed 06/21 11:50pm 4.5ft 15s 6s 4 7 mph 1006.8mb 67f 64f
11:40pm 4.5ft  -  6s 4 7 mph 1006.6mb 67f 64f
11:30pm  -   -   -  2 4 mph 1006.6mb 67f 64f
11:20pm  -   -   -  2 7 mph 1006.6mb 67f 64f
11:10pm  -   -   -  4 7 mph 1006.6mb 67f 64f
11:00pm  -   -   -  4 7 mph 1006.6mb 67f 64f
10:50pm 4.5ft 16s 6s 4 7 mph 1006.8mb 68f 64f
10:40pm 4.5ft  -  6s 4 7 mph 1006.6mb 67f 64f
10:30pm  -   -   -  4 7 mph 1006.6mb 68f 64f
10:20pm  -   -   -  4 7 mph 1006.6mb 67f 65f
10:10pm  -   -   -  4 7 mph 1006.6mb 67f 65f
10:00pm  -   -   -  4 7 mph 1006.5mb 67f 65f
9:50pm 5ft 15s 7s 4 4 mph 1006.4mb 67f 65f
9:40pm  -   -   -  4 4 mph 1006.4mb 68f 65f
9:30pm  -   -   -  2 4 mph 1006.1mb 68f 65f
9:20pm  -   -   -  2 4 mph 1006.1mb 68f 65f
9:10pm  -   -   -  2 7 mph 1006mb 68f 65f
9:00pm  -   -   -  4 7 mph 1005.9mb 68f 65f
8:50pm 5ft 15s 7s 7 9 mph 1005.8mb 68f 65f
8:40pm 5ft  -  7s 4 7 mph 1005.8mb 68f 65f
8:30pm  -   -   -  4 7 mph 1005.6mb 68f 65f
8:20pm  -   -   -  4 9 mph 1005.5mb 68f 65f
8:10pm  -   -   -  4 7 mph 1005.5mb 68f 65f
8:00pm  -   -   -  4 7 mph 1005.5mb 68f 66f
7:50pm 5ft 15s 7s 4 7 mph 1005.5mb 67f 66f
7:40pm  -   -   -  4 7 mph 1005.6mb 68f 66f
7:30pm  -   -   -   -  2 mph 1005.6mb 68f 67f
7:20pm  -   -   -   -  2 mph 1005.5mb 67f 67f
7:10pm  -   -   -   -  2 mph 1005.5mb 68f 67f
7:00pm  -   -   -   -  2 mph 1005.5mb 68f 66f
6:50pm 4.5ft 15s 7s 2 2 mph 1005.5mb 68f 66f
6:40pm  -   -   -  2 4 mph 1005.5mb 68f 66f
6:30pm  -   -   -  2 4 mph 1005.5mb 68f 65f
6:20pm  -   -   -  2 4 mph 1005.5mb 68f 65f
6:10pm  -   -   -  4 9 mph 1005.5mb 68f 65f
6:00pm  -   -   -  7 9 mph 1005.5mb 68f 65f
5:50pm 4.5ft 15s 7s 7 9 mph 1005.5mb 68f 64f
5:40pm 4.5ft  -  7s 7 9 mph 1005.5mb 68f 64f
5:30pm  -   -   -  7 9 mph 1005.5mb 68f 64f
5:20pm  -   -   -  7 9 mph 1005.6mb 68f 64f
5:10pm  -   -   -  7 9 mph 1005.8mb 68f 65f
5:00pm  -   -   -  7 9 mph 1005.9mb 68f 65f
4:50pm 4.5ft 16s 7s 7 9 mph 1006mb 68f 64f
4:40pm 4.5ft  -  7s 9 11 mph 1006mb 68f 64f
4:30pm  -   -   -  9 11 mph 1006.1mb 68f 64f
4:20pm  -   -   -  9 11 mph 1006.3mb 68f 64f
4:10pm  -   -   -  9 11 mph 1006.4mb 68f 64f
4:00pm  -   -   -  9 11 mph 1006.5mb 68f 64f
3:50pm 4.5ft 16s 6s 9 11 mph 1006.8mb 68f 64f
3:40pm 4.5ft  -  6s 9 11 mph 1006.9mb 68f 64f
3:30pm  -   -   -  9 11 mph 1006.9mb 68f 64f
3:20pm  -   -   -  9 11 mph 1007mb 68f 64f
3:10pm  -   -   -  9 11 mph 1007.1mb 68f 64f
3:00pm  -   -   -  9 11 mph 1007.4mb 68f 64f
2:50pm 4.5ft 15s 7s 9 11 mph 1007.3mb 67f 64f
2:40pm  -   -   -  9 11 mph 1007.5mb 67f 64f
2:30pm  -   -   -  7 9 mph 1007.5mb 67f 64f
2:20pm  -   -   -  7 9 mph 1007.8mb 67f 64f
2:10pm  -   -   -  7 9 mph 1007.8mb 67f 64f
2:00pm  -   -   -  7 9 mph 1007.8mb 67f 64f
1:50pm 4ft 15s 7s 9 11 mph 1007.8mb 67f 64f
1:40pm  -   -   -  9 11 mph 1008mb 67f 63f
1:30pm  -   -   -  9 11 mph 1008mb 67f 63f
1:20pm  -   -   -  9 11 mph 1008mb 67f 63f
1:10pm  -   -   -  9 11 mph 1008.3mb 67f 63f
1:00pm  -   -   -  11 13 mph 1008.1mb 67f 63f
12:50pm 4ft 15s 7s 11 13 mph 1008.3mb 67f 63f
12:40pm  -   -   -  9 11 mph 1008.4mb 67f 63f
12:30pm  -   -   -  9 11 mph 1008.5mb 67f 63f
12:20pm  -   -   -  9 13 mph 1008.5mb 67f 63f
12:10pm  -   -   -  11 13 mph 1008.5mb 66f 63f
12:00pm  -   -   -  11 13 mph 1008.5mb 66f 63f
11:50am 4ft 16s 7s 11 13 mph 1008.5mb 66f 64f
11:40am  -   -   -  11 13 mph 1008.5mb 66f 64f
11:30am  -   -   -  7 11 mph 1008.5mb 66f 64f
11:20am  -   -   -  7 9 mph 1008.6mb 66f 64f
11:10am  -   -   -  7 9 mph 1008.6mb 66f 64f
11:00am  -   -   -  7 9 mph 1008.5mb 66f 64f
10:50am 4ft 15s 7s 4 7 mph 1008.5mb 66f 63f
10:40am  -   -   -  7 9 mph 1008.6mb 66f 63f
10:30am  -   -   -  4 7 mph 1008.5mb 66f 63f
10:20am  -   -   -  4 7 mph 1008.5mb 66f 63f
10:10am  -   -   -  4 7 mph 1008.5mb 66f 63f
10:00am  -   -   -  4 7 mph 1008.5mb 66f 62f
9:50am 4.5ft 15s 7s 4 7 mph 1008.5mb 66f 62f
9:40am 4.5ft  -  7s 4 7 mph 1008.5mb 66f 62f
9:30am  -   -   -  7 9 mph 1009.2mb 66f 62f
9:20am  -   -   -  7 7 mph 1008.5mb 66f 62f
9:10am  -   -   -  7 9 mph 1008.5mb 66f 62f
9:00am  -   -   -  7 9 mph 1008.5mb 66f 61f
8:50am 4.5ft 15s 7s 7 9 mph 1008.5mb 66f 61f
8:40am 4.5ft  -  7s 7 9 mph 1008.5mb 66f 61f
8:30am  -   -   -  7 9 mph 1008.5mb 66f 61f
8:20am  -   -   -  7 9 mph 1008.5mb 66f 61f
8:10am  -   -   -  7 9 mph 1008.5mb 66f 61f
8:00am  -   -   -  7 9 mph 1008.5mb 66f 61f
7:50am 4ft 15s 6s 7 9 mph 1008.3mb 66f 61f
7:40am 4ft  -  6s 9 11 mph 1008.1mb 66f 61f
7:30am  -   -   -  7 11 mph 1008mb 66f 62f
7:20am  -   -   -  7 11 mph 1008mb 66f 62f
7:10am  -   -   -  4 9 mph 1008mb 66f 62f
7:00am  -   -   -  4 7 mph 1008mb 66f 62f
6:50am 4.5ft 15s 6s 4 9 mph 1008mb 66f 62f
6:40am 4.5ft  -  6s 4 9 mph 1008mb 66f 62f
6:30am  -   -   -  4 7 mph 1008mb 66f 62f
6:20am  -   -   -  4 9 mph 1008.1mb - 62f
6:10am  -   -   -  7 9 mph 1008mb 66f 62f
6:00am  -   -   -  4 9 mph 1008mb 66f 62f
5:50am 4.5ft 15s 6s 7 9 mph 1008mb 66f 62f
5:40am 4.5ft  -  6s 7 9 mph 1008mb 65f 62f
5:30am  -   -   -  7 9 mph 1007.9mb 65f 62f
5:20am  -   -   -  7 9 mph 1007.8mb 65f 63f
5:10am  -   -   -  7 9 mph 1007.8mb - 63f
5:00am  -   -   -  7 7 mph 1007.8mb 65f 63f
4:50am 4.5ft 15s 6s 7 7 mph 1007.9mb 65f 63f
4:40am  -   -   -  4 7 mph 1008mb 65f 63f
4:30am  -   -   -  4 9 mph 1008mb 65f 63f
4:20am  -   -   -  7 9 mph 1008mb 65f 63f
4:10am  -   -   -  4 7 mph 1008mb 65f 63f
4:00am  -   -   -  4 7 mph 1008mb 66f 62f
3:50am 4.5ft 15s 6s 4 7 mph 1008.1mb 66f 62f
3:40am  -   -   -  4 7 mph 1008mb 66f 63f
3:30am  -   -   -  4 7 mph 1008mb 66f 63f
3:20am  -   -   -  4 7 mph 1008mb 66f 63f
3:10am  -   -   -  4 4 mph 1008mb 66f 63f
3:00am  -   -   -  4 7 mph 1008.1mb 65f 63f
2:50am 4.5ft 15s 6s 4 7 mph 1008.3mb 65f 63f
2:40am 4.5ft  -  6s 4 9 mph 1008.1mb 65f 63f
2:30am  -   -   -  7 9 mph 1008.3mb 65f 63f
2:20am  -   -   -  7 9 mph 1008.4mb 65f 62f
2:10am  -   -   -  7 9 mph 1008.5mb 65f 62f
2:00am  -   -   -  9 11 mph 1008.5mb 65f 63f
1:50am 5ft 16s 6s 7 9 mph 1008.5mb 65f 63f
1:40am  -   -   -  9 9 mph 1008.6mb 65f 62f
1:30am  -   -   -  9 11 mph 1008.8mb 65f 63f
1:20am  -   -   -  9 11 mph 1008.9mb 65f 63f
1:10am  -   -   -  9 11 mph 1009mb 65f 63f
1:00am  -   -   -  9 11 mph 1008.9mb 65f 63f
12:50am 4.5ft 16s 6s 9 11 mph 1008.9mb 66f 63f
12:40am 4.5ft  -  6s 9 11 mph 1008.6mb 66f 63f
12:30am  -   -   -  9 11 mph 1008.6mb 66f 63f
12:20am  -   -   -  7 11 mph 1008.9mb 66f 64f
12:10am  -   -   -  11 13 mph 1008.9mb 66f 64f
12:00am  -   -   -  11 13 mph 1009mb 66f 64f
Tue 06/20 11:50pm 5ft 17s 6s 11 16 mph 1009mb 66f 64f
11:40pm 5ft  -  6s 13 16 mph 1009mb 66f 64f
11:30pm  -   -   -  11 16 mph 1009mb 66f 64f
11:20pm  -   -   -  11 13 mph 1009mb 66f 64f
11:10pm  -   -   -  11 16 mph 1009mb 66f 64f
11:00pm  -   -   -  11 13 mph 1009mb 66f 64f
10:50pm 5ft 15s 6s 11 13 mph 1009mb 66f 64f
10:40pm  -   -   -  9 13 mph 1009mb 66f 64f
10:30pm  -   -   -  11 13 mph 1009mb 67f 64f
10:20pm  -   -   -  9 11 mph 1009mb 67f 65f
10:10pm  -   -   -  11 13 mph 1009mb 67f 65f
10:00pm  -   -   -  11 13 mph 1009mb 67f 65f
9:50pm 4.5ft 6s 6s 11 16 mph 1009mb 67f 64f
9:40pm 4.5ft  -  6s 11 13 mph 1009mb 67f 64f
9:30pm  -   -   -  11 13 mph 1009mb 67f 64f
9:20pm  -   -   -  9 13 mph 1009mb 67f 64f
9:10pm  -   -   -  11 13 mph 1009.6mb 67f 64f
9:00pm  -   -   -  9 11 mph 1008.8mb 67f 65f
8:50pm 5ft 17s 6s 9 11 mph 1008.6mb 67f 65f
8:40pm  -   -   -  9 11 mph 1008.5mb 67f 65f
8:30pm  -   -   -  11 13 mph 1009.3mb 67f 65f
8:20pm  -   -   -  11 16 mph 1008.5mb 67f 64f
8:10pm  -   -   -  13 16 mph 1008.5mb 67f 64f
8:00pm  -   -   -  13 16 mph 1008.5mb 67f 64f
7:50pm 4.5ft 15s 6s 11 16 mph 1008.5mb 67f 64f
7:40pm 4.5ft  -  6s 11 16 mph 1008.5mb 67f 64f
7:30pm  -   -   -  11 13 mph 1008.5mb 67f 64f
7:20pm  -   -   -  11 13 mph 1008.5mb 67f 64f
7:10pm  -   -   -  11 16 mph 1008.5mb 67f 64f
7:00pm  -   -   -  11 16 mph 1008.5mb 67f 64f
6:50pm 4.5ft 16s 6s 13 16 mph 1008.4mb 67f 65f
6:40pm  -   -   -  13 16 mph 1008.5mb 67f 65f
6:30pm  -   -   -  13 16 mph 1008.6mb 67f 65f
6:20pm  -   -   -  11 16 mph 1008.6mb 67f 65f
6:10pm  -   -   -  13 16 mph 1008.8mb 67f 65f
6:00pm  -   -   -  13 16 mph 1008.9mb 67f 66f
5:50pm 4ft 15s 6s 9 13 mph 1008.9mb 67f 66f
5:40pm  -   -   -  9 11 mph 1008.9mb 67f 65f
5:30pm  -   -   -  7 9 mph 1008.9mb 67f 65f
5:20pm  -   -   -  4 7 mph 1009.1mb 67f 65f
5:10pm  -   -   -  4 7 mph 1009.3mb 68f 65f
5:00pm  -   -   -  7 9 mph 1009.1mb 68f 65f
4:50pm 4ft 16s 6s 7 9 mph 1009.1mb 67f 65f
4:40pm 4ft  -  6s 4 9 mph 1009.3mb 67f 65f
4:30pm  -   -   -  4 7 mph 1009.4mb 67f 65f
4:20pm  -   -   -  4 7 mph 1009.4mb 67f 65f
4:10pm  -   -   -  4 7 mph 1009.6mb 67f 64f
4:00pm  -   -   -  7 9 mph 1009.6mb 67f 64f
3:50pm  -   -   -  9 9 mph 1009.8mb - -
3:40pm  -   -   -  9 11 mph 1010mb 67f 64f
3:30pm  -   -   -  9 13 mph 1010.1mb 67f 64f
3:20pm  -   -   -  11 13 mph 1010.1mb 67f 64f
3:10pm  -   -   -  9 11 mph 1010.4mb 67f 64f
3:00pm  -   -   -  7 9 mph 1010.6mb 67f 64f
2:50pm 3.5ft 16s 7s 7 9 mph 1010.8mb 67f 63f
2:40pm  -   -   -  7 9 mph 1010.6mb 67f 63f
2:30pm  -   -   -  7 9 mph 1010.6mb 67f 63f
2:20pm  -   -   -  4 7 mph 1010.9mb 67f 63f
2:10pm  -   -   -  7 9 mph 1011mb 67f 63f
2:00pm  -   -   -  7 11 mph 1011mb 67f 63f
1:50pm 3.5ft 15s 7s 9 11 mph 1011.1mb 67f 63f
1:40pm  -   -   -  9 11 mph 1011.1mb 67f 63f
1:30pm  -   -   -  9 11 mph 1011.3mb 67f 63f
1:20pm  -   -   -  9 13 mph 1011.4mb 67f 63f
1:10pm  -   -   -  9 13 mph 1011.4mb 67f 63f
1:00pm  -   -   -  9 13 mph 1011.5mb 67f 63f
12:50pm 3.5ft 16s 6s 9 11 mph 1011.5mb 67f 63f
12:40pm 3.5ft  -  6s 7 9 mph 1011.6mb 67f 63f
12:30pm  -   -   -  4 7 mph 1011.8mb 67f 63f
12:20pm  -   -   -  2 7 mph 1011.9mb 67f 63f
12:10pm  -   -   -  4 7 mph 1011.9mb 67f 63f
12:00pm  -   -   -  4 7 mph 1012mb 66f 63f
11:50am 3.5ft 15s 6s 4 7 mph 1012mb 66f 63f
11:40am  -   -   -  4 7 mph 1012mb 66f 63f
11:30am  -   -   -  4 7 mph 1012mb 66f 62f
11:20am  -   -   -  4 7 mph 1012.1mb 66f 62f
11:10am  -   -   -  2 7 mph 1012.1mb 66f 62f
11:00am  -   -   -  4 7 mph 1012mb 66f 62f
10:50am 3ft 16s 6s 4 7 mph 1012mb 66f 62f
10:40am  -   -   -  4 7 mph 1012mb 66f 62f
10:30am  -   -   -  4 7 mph 1012mb 66f 62f
10:20am  -   -   -  4 7 mph 1011.9mb 66f 62f
10:10am  -   -   -  4 7 mph 1011.8mb 66f 62f
10:00am  -   -   -  7 9 mph 1011.5mb 66f 61f
9:50am 3ft 15s  -  7 9 mph 1011.6mb 66f 61f
9:40am  -   -   -  7 9 mph 1011.6mb 66f 61f
9:30am  -   -   -  7 9 mph 1011.5mb 67f 61f
9:20am  -   -   -  4 9 mph 1011.6mb 67f 61f
9:10am  -   -   -  7 9 mph 1011.8mb 66f 61f
9:00am  -   -   -  7 11 mph 1011.6mb 66f 61f
8:50am 3ft 16s 6s 7 9 mph 1011.5mb 66f 61f
8:40am  -   -   -  7 9 mph 1011.5mb 66f 61f
8:30am  -   -   -  7 9 mph 1011.5mb 66f 61f
8:20am  -   -   -  4 9 mph 1011.5mb 66f 61f
8:10am  -   -   -  7 9 mph 1011.5mb 66f 61f
8:00am  -   -   -  4 9 mph 1011.4mb 66f 61f
7:50am 3.5ft 19s 6s 7 9 mph 1011.3mb 67f 61f
7:40am 3.5ft  -  6s 7 11 mph 1011.3mb 67f 60f
7:30am  -   -   -  7 11 mph 1011.3mb 67f 61f
7:20am  -   -   -  7 11 mph 1011mb 67f 61f
7:10am  -   -   -  7 9 mph 1010.9mb 67f 60f
7:00am  -   -   -  7 11 mph 1010.8mb 67f 60f
6:50am 3.5ft 13s 6s 7 11 mph 1010.8mb 66f 60f
6:40am 3.5ft  -  6s 7 9 mph 1010.8mb 66f 60f
6:30am  -   -   -  7 9 mph 1010.8mb 66f 60f
6:20am  -   -   -  7 9 mph 1010.6mb 66f 60f
6:10am  -   -   -  4 9 mph 1010.6mb 66f 60f
6:00am  -   -   -  7 9 mph 1010.5mb 66f 60f
5:50am 3.5ft 16s 6s 4 7 mph 1010.5mb 66f 60f
5:40am 3.5ft  -  6s 4 9 mph 1010.5mb 66f 61f
5:30am  -   -   -  4 7 mph 1010.5mb 66f 60f
5:20am  -   -   -  7 9 mph 1010.4mb 66f 60f
5:10am  -   -   -  4 9 mph 1010.3mb 66f 60f
5:00am  -   -   -  7 9 mph 1010mb 66f 60f
4:50am 3.5ft 13s 6s 2 7 mph 1010.1mb 66f 60f
4:40am  -   -   -  4 9 mph 1010mb 66f 60f
4:30am  -   -   -  4 9 mph 1010.1mb 66f 60f
4:20am  -   -   -  4 7 mph 1010.1mb 66f 60f
4:10am  -   -   -  4 7 mph 1010.1mb 66f 60f
4:00am  -   -   -  2 7 mph 1010mb 66f 60f
3:50am 3.5ft 16s 6s 4 7 mph 1010mb 66f 60f
3:40am 3.5ft  -  6s 4 7 mph 1010mb - 60f
3:30am  -   -   -  4 9 mph 1010mb 66f 60f
3:20am  -   -   -   -  4 mph 1010mb 66f 60f
3:10am  -   -   -  2 7 mph 1010mb 66f 60f
3:00am  -   -   -  2 4 mph 1010.3mb 66f 60f
2:50am 3.5ft 16s 6s 4 7 mph 1010.5mb 66f 60f
2:40am 3.5ft  -  6s 2 7 mph 1010.4mb 66f 60f
2:30am  -   -   -  4 7 mph 1010.4mb 66f 60f
2:20am  -   -   -  4 7 mph 1010.3mb 66f 60f
2:10am  -   -   -   -  2 mph 1010.5mb 66f 60f
2:00am  -   -   -  4 7 mph 1010.5mb 66f 60f
1:50am 3.5ft 13s 6s 4 7 mph 1010.5mb 66f 60f
1:40am 3.5ft  -  6s 4 7 mph 1010.5mb 66f 60f
1:30am  -   -   -  4 9 mph 1010.5mb 66f 61f
1:20am  -   -   -  4 7 mph 1010.5mb 66f 61f
1:10am  -   -   -  4 9 mph 1010.6mb 66f 61f
1:00am  -   -   -  4 9 mph 1010.6mb 66f 61f
12:50am 3.5ft 13s 6s 4 9 mph 1010.8mb 66f 61f
12:40am  -   -   -  4 9 mph 1010.9mb 67f 61f
12:30am  -   -   -  4 9 mph 1010.9mb 67f 61f
12:20am  -   -   -  4 9 mph 1010.9mb 67f 61f
12:10am  -   -   -  2 7 mph 1010.8mb 67f 61f
12:00am  -   -   -  2 7 mph 1010.8mb 67f 61f
Mon 06/19 11:50pm 4ft 6s 6s 4 7 mph 1010.8mb 67f 61f
11:40pm 4ft  -  6s 2 7 mph 1010.8mb 67f 61f
11:30pm  -   -   -  4 7 mph 1010.8mb 67f 62f
11:20pm  -   -   -  2 7 mph 1010.8mb 67f 62f
11:10pm  -   -   -  4 7 mph 1010.8mb 67f 62f
11:00pm  -   -   -  4 7 mph 1010.5mb 67f 62f
10:50pm 4ft 16s 6s 4 7 mph 1010.6mb 67f 62f
10:40pm 4ft  -  6s 4 7 mph 1010.5mb 67f 62f
10:30pm  -   -   -  4 9 mph 1010.6mb 67f 62f
10:20pm  -   -   -  4 9 mph 1010.5mb 67f 62f
10:10pm  -   -   -  4 9 mph 1010.5mb 67f 62f
10:00pm  -   -   -  4 7 mph 1010.4mb 67f 62f
9:50pm 3.5ft 14s 5s 4 7 mph 1010.1mb 67f 62f
9:40pm  -   -   -  4 9 mph 1010.3mb 67f 62f
9:30pm  -   -   -  7 9 mph 1010.1mb 67f 62f
9:20pm  -   -   -  7 11 mph 1010mb 67f 62f
9:10pm  -   -   -  9 11 mph 1010mb 67f 62f
9:00pm  -   -   -  9 13 mph 1010mb 67f 62f
8:50pm 3.5ft 15s 5s 9 13 mph 1009.9mb 67f 62f
8:40pm 3.5ft  -  5s 11 13 mph 1009.5mb 67f 63f
8:30pm  -   -   -  7 13 mph 1009.6mb 67f 62f
8:20pm  -   -   -  9 11 mph 1009.6mb 67f 62f
8:10pm  -   -   -  9 11 mph 1009.6mb 67f 62f
8:00pm  -   -   -  9 11 mph 1009.6mb 67f 62f
7:50pm 3.5ft 16s 6s 9 11 mph 1009.5mb 67f 62f
7:40pm 3.5ft  -  6s 9 13 mph 1009.5mb 67f 62f
7:30pm  -   -   -  9 13 mph 1009.5mb 67f 62f
7:20pm  -   -   -  9 13 mph 1009.4mb 67f 62f
7:10pm  -   -   -  7 11 mph 1009.4mb 67f 62f
7:00pm  -   -   -  9 11 mph 1009.3mb 67f 62f
6:50pm 3ft 12s 6s 9 13 mph 1009.1mb 67f 62f
6:40pm  -   -   -  9 13 mph 1009.1mb 67f 62f
6:30pm  -   -   -  11 13 mph 1009.1mb 67f 62f
6:20pm  -   -   -  11 16 mph 1009.1mb 67f 62f
6:10pm  -   -   -  11 13 mph 1009.3mb 67f 62f
6:00pm  -   -   -  11 16 mph 1009mb - 62f
5:50pm 3ft 14s 6s 11 16 mph 1009mb 67f 63f
5:40pm  -   -   -  11 16 mph 1008.9mb 67f 63f
5:30pm  -   -   -  11 16 mph 1009mb 67f 63f